sensor_id;sensor_type;location;lat;lon;timestamp;P1;durP1;ratioP1;P2;durP2;ratioP2
37983;SDS011;64625;50.882;4.376;2023-04-08T00:00:53;21.92;;;6.90;;
37983;SDS011;64625;50.882;4.376;2023-04-08T00:03:19;22.25;;;7.13;;
37983;SDS011;64625;50.882;4.376;2023-04-08T00:05:45;26.20;;;6.13;;
37983;SDS011;64625;50.882;4.376;2023-04-08T00:08:11;21.88;;;9.90;;
37983;SDS011;64625;50.882;4.376;2023-04-08T00:10:37;28.63;;;9.65;;
37983;SDS011;64625;50.882;4.376;2023-04-08T00:13:03;16.60;;;5.88;;
37983;SDS011;64625;50.882;4.376;2023-04-08T00:15:29;23.30;;;6.28;;
37983;SDS011;64625;50.882;4.376;2023-04-08T00:17:55;22.20;;;6.60;;
37983;SDS011;64625;50.882;4.376;2023-04-08T00:20:21;21.95;;;5.72;;
37983;SDS011;64625;50.882;4.376;2023-04-08T00:22:48;23.48;;;6.95;;
37983;SDS011;64625;50.882;4.376;2023-04-08T00:25:15;22.35;;;7.32;;
37983;SDS011;64625;50.882;4.376;2023-04-08T00:27:41;15.73;;;6.85;;
37983;SDS011;64625;50.882;4.376;2023-04-08T00:30:07;18.85;;;5.80;;
37983;SDS011;64625;50.882;4.376;2023-04-08T00:32:33;20.25;;;6.45;;
37983;SDS011;64625;50.882;4.376;2023-04-08T00:34:59;16.88;;;6.40;;
37983;SDS011;64625;50.882;4.376;2023-04-08T00:37:26;29.75;;;6.93;;
37983;SDS011;64625;50.882;4.376;2023-04-08T00:39:52;30.67;;;6.53;;
37983;SDS011;64625;50.882;4.376;2023-04-08T00:42:18;19.95;;;6.00;;
37983;SDS011;64625;50.882;4.376;2023-04-08T00:44:45;25.02;;;7.97;;
37983;SDS011;64625;50.882;4.376;2023-04-08T00:47:14;22.95;;;7.15;;
37983;SDS011;64625;50.882;4.376;2023-04-08T00:49:41;20.42;;;6.25;;
37983;SDS011;64625;50.882;4.376;2023-04-08T00:52:07;31.20;;;6.28;;
37983;SDS011;64625;50.882;4.376;2023-04-08T00:54:36;27.30;;;6.93;;
37983;SDS011;64625;50.882;4.376;2023-04-08T00:57:03;23.38;;;6.32;;
37983;SDS011;64625;50.882;4.376;2023-04-08T00:59:30;19.25;;;6.85;;
37983;SDS011;64625;50.882;4.376;2023-04-08T01:05:04;25.08;;;7.20;;
37983;SDS011;64625;50.882;4.376;2023-04-08T01:07:34;19.85;;;7.25;;
37983;SDS011;64625;50.882;4.376;2023-04-08T01:10:06;20.15;;;6.38;;
37983;SDS011;64625;50.882;4.376;2023-04-08T01:12:55;36.10;;;9.73;;
37983;SDS011;64625;50.882;4.376;2023-04-08T01:15:23;32.17;;;8.63;;
37983;SDS011;64625;50.882;4.376;2023-04-08T01:17:52;18.13;;;6.60;;
37983;SDS011;64625;50.882;4.376;2023-04-08T01:20:20;20.08;;;8.13;;
37983;SDS011;64625;50.882;4.376;2023-04-08T01:28:11;28.35;;;6.90;;
37983;SDS011;64625;50.882;4.376;2023-04-08T01:30:40;25.95;;;7.90;;
37983;SDS011;64625;50.882;4.376;2023-04-08T01:33:07;25.88;;;7.82;;
37983;SDS011;64625;50.882;4.376;2023-04-08T01:35:36;22.20;;;8.43;;
37983;SDS011;64625;50.882;4.376;2023-04-08T01:38:03;29.85;;;7.20;;
37983;SDS011;64625;50.882;4.376;2023-04-08T01:40:31;22.50;;;8.57;;
37983;SDS011;64625;50.882;4.376;2023-04-08T01:42:59;27.88;;;8.88;;
37983;SDS011;64625;50.882;4.376;2023-04-08T01:45:26;26.38;;;7.68;;
37983;SDS011;64625;50.882;4.376;2023-04-08T01:47:53;25.58;;;8.02;;
37983;SDS011;64625;50.882;4.376;2023-04-08T01:50:20;34.17;;;9.05;;
37983;SDS011;64625;50.882;4.376;2023-04-08T01:52:48;23.20;;;8.02;;
37983;SDS011;64625;50.882;4.376;2023-04-08T01:55:17;20.58;;;9.95;;
37983;SDS011;64625;50.882;4.376;2023-04-08T01:57:47;25.05;;;10.90;;
37983;SDS011;64625;50.882;4.376;2023-04-08T02:02:43;22.13;;;6.90;;
37983;SDS011;64625;50.882;4.376;2023-04-08T02:07:42;26.98;;;8.73;;
37983;SDS011;64625;50.882;4.376;2023-04-08T02:10:09;17.52;;;7.55;;
37983;SDS011;64625;50.882;4.376;2023-04-08T02:12:35;29.33;;;8.02;;
37983;SDS011;64625;50.882;4.376;2023-04-08T02:15:01;31.80;;;9.30;;
37983;SDS011;64625;50.882;4.376;2023-04-08T02:17:33;24.52;;;10.88;;
37983;SDS011;64625;50.882;4.376;2023-04-08T02:20:02;21.27;;;12.43;;
37983;SDS011;64625;50.882;4.376;2023-04-08T02:25:44;28.27;;;9.43;;
37983;SDS011;64625;50.882;4.376;2023-04-08T02:28:12;18.25;;;8.75;;
37983;SDS011;64625;50.882;4.376;2023-04-08T02:30:43;19.48;;;9.40;;
37983;SDS011;64625;50.882;4.376;2023-04-08T02:33:15;18.98;;;9.98;;
37983;SDS011;64625;50.882;4.376;2023-04-08T02:35:44;34.65;;;9.48;;
37983;SDS011;64625;50.882;4.376;2023-04-08T02:38:10;19.33;;;10.43;;
37983;SDS011;64625;50.882;4.376;2023-04-08T02:40:36;16.05;;;9.95;;
37983;SDS011;64625;50.882;4.376;2023-04-08T02:43:02;33.63;;;10.30;;
37983;SDS011;64625;50.882;4.376;2023-04-08T02:45:31;25.98;;;10.07;;
37983;SDS011;64625;50.882;4.376;2023-04-08T02:48:01;18.13;;;10.13;;
37983;SDS011;64625;50.882;4.376;2023-04-08T02:50:27;21.73;;;10.45;;
37983;SDS011;64625;50.882;4.376;2023-04-08T02:52:54;27.13;;;9.55;;
37983;SDS011;64625;50.882;4.376;2023-04-08T02:55:20;22.95;;;10.90;;
37983;SDS011;64625;50.882;4.376;2023-04-08T02:57:46;21.40;;;10.85;;
37983;SDS011;64625;50.882;4.376;2023-04-08T03:00:12;24.20;;;10.02;;
37983;SDS011;64625;50.882;4.376;2023-04-08T03:02:38;24.35;;;10.80;;
37983;SDS011;64625;50.882;4.376;2023-04-08T03:05:05;30.17;;;9.23;;
37983;SDS011;64625;50.882;4.376;2023-04-08T03:07:31;23.67;;;9.18;;
37983;SDS011;64625;50.882;4.376;2023-04-08T03:09:57;21.35;;;11.50;;
37983;SDS011;64625;50.882;4.376;2023-04-08T03:12:23;28.92;;;9.85;;
37983;SDS011;64625;50.882;4.376;2023-04-08T03:14:51;24.95;;;10.82;;
37983;SDS011;64625;50.882;4.376;2023-04-08T03:17:17;21.23;;;11.27;;
37983;SDS011;64625;50.882;4.376;2023-04-08T03:19:44;24.98;;;11.10;;
37983;SDS011;64625;50.882;4.376;2023-04-08T03:22:10;24.55;;;12.60;;
37983;SDS011;64625;50.882;4.376;2023-04-08T03:24:35;27.90;;;12.20;;
37983;SDS011;64625;50.882;4.376;2023-04-08T03:27:01;26.02;;;12.07;;
37983;SDS011;64625;50.882;4.376;2023-04-08T03:29:27;28.77;;;12.77;;
37983;SDS011;64625;50.882;4.376;2023-04-08T03:31:53;27.92;;;14.10;;
37983;SDS011;64625;50.882;4.376;2023-04-08T03:34:19;35.08;;;13.77;;
37983;SDS011;64625;50.882;4.376;2023-04-08T03:36:45;26.40;;;14.30;;
37983;SDS011;64625;50.882;4.376;2023-04-08T03:39:11;26.17;;;13.23;;
37983;SDS011;64625;50.882;4.376;2023-04-08T03:41:36;22.13;;;13.10;;
37983;SDS011;64625;50.882;4.376;2023-04-08T03:44:02;27.73;;;13.55;;
37983;SDS011;64625;50.882;4.376;2023-04-08T03:46:28;28.92;;;13.27;;
37983;SDS011;64625;50.882;4.376;2023-04-08T03:48:54;42.17;;;14.32;;
37983;SDS011;64625;50.882;4.376;2023-04-08T03:51:19;29.27;;;14.70;;
37983;SDS011;64625;50.882;4.376;2023-04-08T03:53:45;37.95;;;16.58;;
37983;SDS011;64625;50.882;4.376;2023-04-08T03:56:13;43.45;;;14.45;;
37983;SDS011;64625;50.882;4.376;2023-04-08T03:58:39;36.40;;;15.48;;
37983;SDS011;64625;50.882;4.376;2023-04-08T04:01:05;42.20;;;15.70;;
37983;SDS011;64625;50.882;4.376;2023-04-08T04:03:30;32.05;;;16.20;;
37983;SDS011;64625;50.882;4.376;2023-04-08T04:05:56;40.10;;;16.42;;
37983;SDS011;64625;50.882;4.376;2023-04-08T04:08:22;40.95;;;17.73;;
37983;SDS011;64625;50.882;4.376;2023-04-08T04:10:50;39.15;;;15.95;;
37983;SDS011;64625;50.882;4.376;2023-04-08T04:13:16;39.67;;;15.48;;
37983;SDS011;64625;50.882;4.376;2023-04-08T04:15:43;39.92;;;15.02;;
37983;SDS011;64625;50.882;4.376;2023-04-08T04:18:09;36.40;;;15.52;;
37983;SDS011;64625;50.882;4.376;2023-04-08T04:20:38;30.60;;;13.95;;
37983;SDS011;64625;50.882;4.376;2023-04-08T04:23:05;38.67;;;15.70;;
37983;SDS011;64625;50.882;4.376;2023-04-08T04:25:31;35.25;;;16.70;;
37983;SDS011;64625;50.882;4.376;2023-04-08T04:27:57;30.67;;;15.32;;
37983;SDS011;64625;50.882;4.376;2023-04-08T04:30:23;27.52;;;14.48;;
37983;SDS011;64625;50.882;4.376;2023-04-08T04:32:49;46.17;;;17.25;;
37983;SDS011;64625;50.882;4.376;2023-04-08T04:35:14;39.60;;;16.83;;
37983;SDS011;64625;50.882;4.376;2023-04-08T04:37:40;34.10;;;14.90;;
37983;SDS011;64625;50.882;4.376;2023-04-08T04:40:07;47.63;;;18.67;;
37983;SDS011;64625;50.882;4.376;2023-04-08T04:42:33;44.15;;;16.35;;
37983;SDS011;64625;50.882;4.376;2023-04-08T04:44:59;48.20;;;17.17;;
37983;SDS011;64625;50.882;4.376;2023-04-08T04:47:25;33.05;;;14.13;;
37983;SDS011;64625;50.882;4.376;2023-04-08T04:49:51;40.35;;;15.90;;
37983;SDS011;64625;50.882;4.376;2023-04-08T04:52:17;37.92;;;15.73;;
37983;SDS011;64625;50.882;4.376;2023-04-08T04:54:43;36.95;;;15.98;;
37983;SDS011;64625;50.882;4.376;2023-04-08T04:57:08;32.58;;;14.80;;
37983;SDS011;64625;50.882;4.376;2023-04-08T04:59:35;42.50;;;16.45;;
37983;SDS011;64625;50.882;4.376;2023-04-08T05:02:01;48.08;;;17.73;;
37983;SDS011;64625;50.882;4.376;2023-04-08T05:04:27;37.35;;;16.88;;
37983;SDS011;64625;50.882;4.376;2023-04-08T05:06:53;36.53;;;15.00;;
37983;SDS011;64625;50.882;4.376;2023-04-08T05:09:19;35.63;;;17.02;;
37983;SDS011;64625;50.882;4.376;2023-04-08T05:11:45;51.55;;;17.42;;
37983;SDS011;64625;50.882;4.376;2023-04-08T05:14:10;44.67;;;15.82;;
37983;SDS011;64625;50.882;4.376;2023-04-08T05:16:36;50.28;;;18.52;;
37983;SDS011;64625;50.882;4.376;2023-04-08T05:19:03;37.55;;;15.55;;
37983;SDS011;64625;50.882;4.376;2023-04-08T05:21:29;36.35;;;16.90;;
37983;SDS011;64625;50.882;4.376;2023-04-08T05:23:55;38.05;;;16.52;;
37983;SDS011;64625;50.882;4.376;2023-04-08T05:26:21;42.58;;;17.58;;
37983;SDS011;64625;50.882;4.376;2023-04-08T05:28:47;41.67;;;14.88;;
37983;SDS011;64625;50.882;4.376;2023-04-08T05:31:17;36.17;;;16.58;;
37983;SDS011;64625;50.882;4.376;2023-04-08T05:33:44;41.85;;;16.85;;
37983;SDS011;64625;50.882;4.376;2023-04-08T05:36:10;42.83;;;16.63;;
37983;SDS011;64625;50.882;4.376;2023-04-08T05:38:37;40.08;;;16.98;;
37983;SDS011;64625;50.882;4.376;2023-04-08T05:41:03;47.88;;;18.17;;
37983;SDS011;64625;50.882;4.376;2023-04-08T05:43:29;39.47;;;14.85;;
37983;SDS011;64625;50.882;4.376;2023-04-08T05:45:57;38.25;;;17.08;;
37983;SDS011;64625;50.882;4.376;2023-04-08T05:48:23;40.33;;;16.50;;
37983;SDS011;64625;50.882;4.376;2023-04-08T05:50:49;45.67;;;16.95;;
37983;SDS011;64625;50.882;4.376;2023-04-08T05:53:15;41.40;;;18.52;;
37983;SDS011;64625;50.882;4.376;2023-04-08T05:55:40;45.05;;;19.65;;
37983;SDS011;64625;50.882;4.376;2023-04-08T05:58:06;49.65;;;17.92;;
37983;SDS011;64625;50.882;4.376;2023-04-08T06:00:32;36.22;;;17.67;;
37983;SDS011;64625;50.882;4.376;2023-04-08T06:02:58;34.17;;;17.02;;
37983;SDS011;64625;50.882;4.376;2023-04-08T06:05:23;40.40;;;17.73;;
37983;SDS011;64625;50.882;4.376;2023-04-08T06:07:50;42.45;;;17.52;;
37983;SDS011;64625;50.882;4.376;2023-04-08T06:10:15;43.00;;;16.98;;
37983;SDS011;64625;50.882;4.376;2023-04-08T06:12:42;44.00;;;15.30;;
37983;SDS011;64625;50.882;4.376;2023-04-08T06:15:08;50.53;;;17.63;;
37983;SDS011;64625;50.882;4.376;2023-04-08T06:17:37;35.85;;;17.85;;
37983;SDS011;64625;50.882;4.376;2023-04-08T06:20:05;41.20;;;16.65;;
37983;SDS011;64625;50.882;4.376;2023-04-08T06:22:31;39.40;;;16.10;;
37983;SDS011;64625;50.882;4.376;2023-04-08T06:24:57;32.05;;;16.08;;
37983;SDS011;64625;50.882;4.376;2023-04-08T06:27:22;35.30;;;17.27;;
37983;SDS011;64625;50.882;4.376;2023-04-08T06:29:48;42.05;;;17.02;;
37983;SDS011;64625;50.882;4.376;2023-04-08T06:32:14;41.03;;;17.02;;
37983;SDS011;64625;50.882;4.376;2023-04-08T06:34:41;45.60;;;19.13;;
37983;SDS011;64625;50.882;4.376;2023-04-08T06:37:08;36.42;;;17.50;;
37983;SDS011;64625;50.882;4.376;2023-04-08T06:39:34;37.15;;;17.27;;
37983;SDS011;64625;50.882;4.376;2023-04-08T06:42:00;38.20;;;17.52;;
37983;SDS011;64625;50.882;4.376;2023-04-08T06:44:26;42.80;;;18.33;;
37983;SDS011;64625;50.882;4.376;2023-04-08T06:46:52;41.10;;;18.25;;
37983;SDS011;64625;50.882;4.376;2023-04-08T06:49:18;36.75;;;17.85;;
37983;SDS011;64625;50.882;4.376;2023-04-08T06:51:44;37.95;;;17.27;;
37983;SDS011;64625;50.882;4.376;2023-04-08T06:54:10;38.25;;;17.05;;
37983;SDS011;64625;50.882;4.376;2023-04-08T06:56:35;37.78;;;17.40;;
37983;SDS011;64625;50.882;4.376;2023-04-08T06:59:01;34.47;;;17.38;;
37983;SDS011;64625;50.882;4.376;2023-04-08T07:01:29;47.08;;;18.38;;
37983;SDS011;64625;50.882;4.376;2023-04-08T07:03:55;28.20;;;15.52;;
37983;SDS011;64625;50.882;4.376;2023-04-08T07:06:23;28.38;;;14.18;;
37983;SDS011;64625;50.882;4.376;2023-04-08T07:08:49;29.77;;;15.07;;
37983;SDS011;64625;50.882;4.376;2023-04-08T07:11:15;30.15;;;14.82;;
37983;SDS011;64625;50.882;4.376;2023-04-08T07:13:41;29.95;;;15.00;;
37983;SDS011;64625;50.882;4.376;2023-04-08T07:16:07;27.38;;;12.55;;
37983;SDS011;64625;50.882;4.376;2023-04-08T07:18:33;29.35;;;13.82;;
37983;SDS011;64625;50.882;4.376;2023-04-08T07:20:59;25.75;;;13.02;;
37983;SDS011;64625;50.882;4.376;2023-04-08T07:23:25;22.02;;;14.43;;
37983;SDS011;64625;50.882;4.376;2023-04-08T07:25:51;30.60;;;13.85;;
37983;SDS011;64625;50.882;4.376;2023-04-08T07:28:18;26.65;;;12.50;;
37983;SDS011;64625;50.882;4.376;2023-04-08T07:30:44;25.70;;;13.25;;
37983;SDS011;64625;50.882;4.376;2023-04-08T07:33:13;23.30;;;13.60;;
37983;SDS011;64625;50.882;4.376;2023-04-08T07:35:39;31.48;;;13.90;;
37983;SDS011;64625;50.882;4.376;2023-04-08T07:38:06;29.15;;;12.93;;
37983;SDS011;64625;50.882;4.376;2023-04-08T07:40:35;24.85;;;12.98;;
37983;SDS011;64625;50.882;4.376;2023-04-08T07:43:01;32.33;;;13.50;;
37983;SDS011;64625;50.882;4.376;2023-04-08T07:45:27;31.73;;;13.95;;
37983;SDS011;64625;50.882;4.376;2023-04-08T07:47:53;29.45;;;13.25;;
37983;SDS011;64625;50.882;4.376;2023-04-08T07:50:18;30.23;;;13.98;;
37983;SDS011;64625;50.882;4.376;2023-04-08T07:52:44;29.92;;;13.88;;
37983;SDS011;64625;50.882;4.376;2023-04-08T07:55:10;29.00;;;14.23;;
37983;SDS011;64625;50.882;4.376;2023-04-08T07:57:36;25.85;;;13.98;;
37983;SDS011;64625;50.882;4.376;2023-04-08T08:00:03;26.83;;;11.85;;
37983;SDS011;64625;50.882;4.376;2023-04-08T08:02:28;25.60;;;13.02;;
37983;SDS011;64625;50.882;4.376;2023-04-08T08:04:55;33.50;;;15.77;;
37983;SDS011;64625;50.882;4.376;2023-04-08T08:07:21;31.30;;;13.50;;
37983;SDS011;64625;50.882;4.376;2023-04-08T08:09:46;26.40;;;13.38;;
37983;SDS011;64625;50.882;4.376;2023-04-08T08:12:13;23.15;;;13.05;;
37983;SDS011;64625;50.882;4.376;2023-04-08T08:15:17;25.17;;;13.75;;
37983;SDS011;64625;50.882;4.376;2023-04-08T08:17:45;27.17;;;12.75;;
37983;SDS011;64625;50.882;4.376;2023-04-08T08:20:11;28.45;;;14.90;;
37983;SDS011;64625;50.882;4.376;2023-04-08T08:22:37;24.73;;;13.20;;
37983;SDS011;64625;50.882;4.376;2023-04-08T08:25:05;35.88;;;14.63;;
37983;SDS011;64625;50.882;4.376;2023-04-08T08:27:33;28.98;;;14.82;;
37983;SDS011;64625;50.882;4.376;2023-04-08T08:29:59;33.97;;;12.52;;
37983;SDS011;64625;50.882;4.376;2023-04-08T08:32:24;25.00;;;12.10;;
37983;SDS011;64625;50.882;4.376;2023-04-08T08:34:50;23.98;;;12.32;;
37983;SDS011;64625;50.882;4.376;2023-04-08T08:37:16;23.75;;;11.60;;
37983;SDS011;64625;50.882;4.376;2023-04-08T08:39:42;24.38;;;12.80;;
37983;SDS011;64625;50.882;4.376;2023-04-08T08:42:24;23.27;;;12.25;;
37983;SDS011;64625;50.882;4.376;2023-04-08T08:44:51;27.33;;;13.02;;
37983;SDS011;64625;50.882;4.376;2023-04-08T08:47:18;28.33;;;13.25;;
37983;SDS011;64625;50.882;4.376;2023-04-08T08:49:44;19.90;;;13.18;;
37983;SDS011;64625;50.882;4.376;2023-04-08T08:52:15;23.40;;;12.75;;
37983;SDS011;64625;50.882;4.376;2023-04-08T08:54:42;23.75;;;11.52;;
37983;SDS011;64625;50.882;4.376;2023-04-08T08:57:18;24.17;;;10.73;;
37983;SDS011;64625;50.882;4.376;2023-04-08T08:59:45;23.73;;;12.05;;
37983;SDS011;64625;50.882;4.376;2023-04-08T09:02:30;20.17;;;13.10;;
37983;SDS011;64625;50.882;4.376;2023-04-08T09:05:01;33.13;;;12.65;;
37983;SDS011;64625;50.882;4.376;2023-04-08T09:07:28;31.35;;;13.05;;
37983;SDS011;64625;50.882;4.376;2023-04-08T09:09:56;28.65;;;13.07;;
37983;SDS011;64625;50.882;4.376;2023-04-08T09:12:23;29.27;;;13.85;;
37983;SDS011;64625;50.882;4.376;2023-04-08T09:15:01;27.90;;;13.43;;
37983;SDS011;64625;50.882;4.376;2023-04-08T09:17:34;30.90;;;14.15;;
37983;SDS011;64625;50.882;4.376;2023-04-08T09:22:56;30.95;;;16.20;;
37983;SDS011;64625;50.882;4.376;2023-04-08T09:25:26;30.40;;;14.98;;
37983;SDS011;64625;50.882;4.376;2023-04-08T09:27:56;37.42;;;15.95;;
37983;SDS011;64625;50.882;4.376;2023-04-08T09:30:23;27.23;;;16.00;;
37983;SDS011;64625;50.882;4.376;2023-04-08T09:32:54;25.27;;;15.38;;
37983;SDS011;64625;50.882;4.376;2023-04-08T09:35:23;39.80;;;19.52;;
37983;SDS011;64625;50.882;4.376;2023-04-08T09:37:49;36.92;;;18.00;;
37983;SDS011;64625;50.882;4.376;2023-04-08T09:40:15;27.38;;;17.15;;
37983;SDS011;64625;50.882;4.376;2023-04-08T09:42:48;31.73;;;17.17;;
37983;SDS011;64625;50.882;4.376;2023-04-08T09:45:17;29.73;;;17.05;;
37983;SDS011;64625;50.882;4.376;2023-04-08T09:47:51;35.80;;;18.55;;
37983;SDS011;64625;50.882;4.376;2023-04-08T09:50:30;27.55;;;17.55;;
37983;SDS011;64625;50.882;4.376;2023-04-08T09:53:11;36.17;;;18.63;;
37983;SDS011;64625;50.882;4.376;2023-04-08T09:55:43;31.80;;;18.63;;
37983;SDS011;64625;50.882;4.376;2023-04-08T09:58:15;38.15;;;19.25;;
37983;SDS011;64625;50.882;4.376;2023-04-08T10:00:48;29.07;;;17.03;;
37983;SDS011;64625;50.882;4.376;2023-04-08T10:03:29;36.67;;;18.30;;
37983;SDS011;64625;50.882;4.376;2023-04-08T10:06:00;30.08;;;17.90;;
37983;SDS011;64625;50.882;4.376;2023-04-08T10:08:27;33.50;;;16.70;;
37983;SDS011;64625;50.882;4.376;2023-04-08T10:10:57;25.95;;;17.45;;
37983;SDS011;64625;50.882;4.376;2023-04-08T10:13:23;25.15;;;16.98;;
37983;SDS011;64625;50.882;4.376;2023-04-08T10:16:16;32.40;;;19.00;;
37983;SDS011;64625;50.882;4.376;2023-04-08T10:18:44;35.33;;;19.80;;
37983;SDS011;64625;50.882;4.376;2023-04-08T10:24:07;28.75;;;18.00;;
37983;SDS011;64625;50.882;4.376;2023-04-08T10:26:38;24.20;;;16.85;;
37983;SDS011;64625;50.882;4.376;2023-04-08T10:31:45;26.48;;;15.00;;
37983;SDS011;64625;50.882;4.376;2023-04-08T10:34:19;24.40;;;14.23;;
37983;SDS011;64625;50.882;4.376;2023-04-08T10:39:13;26.08;;;13.93;;
37983;SDS011;64625;50.882;4.376;2023-04-08T10:41:43;27.80;;;14.60;;
37983;SDS011;64625;50.882;4.376;2023-04-08T10:44:19;30.20;;;14.93;;
37983;SDS011;64625;50.882;4.376;2023-04-08T10:46:47;30.38;;;14.48;;
37983;SDS011;64625;50.882;4.376;2023-04-08T10:49:14;27.48;;;13.38;;
37983;SDS011;64625;50.882;4.376;2023-04-08T10:51:41;24.73;;;14.07;;
37983;SDS011;64625;50.882;4.376;2023-04-08T10:54:14;23.38;;;14.02;;
37983;SDS011;64625;50.882;4.376;2023-04-08T10:59:10;20.73;;;12.88;;
37983;SDS011;64625;50.882;4.376;2023-04-08T11:01:40;23.70;;;13.02;;
37983;SDS011;64625;50.882;4.376;2023-04-08T11:04:12;20.52;;;12.63;;
37983;SDS011;64625;50.882;4.376;2023-04-08T11:06:40;19.52;;;11.43;;
37983;SDS011;64625;50.882;4.376;2023-04-08T11:09:07;20.38;;;12.45;;
37983;SDS011;64625;50.882;4.376;2023-04-08T11:11:33;22.58;;;13.38;;
37983;SDS011;64625;50.882;4.376;2023-04-08T11:14:00;21.83;;;12.65;;
37983;SDS011;64625;50.882;4.376;2023-04-08T11:16:29;21.77;;;12.90;;
37983;SDS011;64625;50.882;4.376;2023-04-08T11:18:55;18.15;;;12.45;;
37983;SDS011;64625;50.882;4.376;2023-04-08T11:21:25;15.27;;;11.18;;
37983;SDS011;64625;50.882;4.376;2023-04-08T11:23:53;18.05;;;10.38;;
37983;SDS011;64625;50.882;4.376;2023-04-08T11:26:20;25.73;;;14.15;;
37983;SDS011;64625;50.882;4.376;2023-04-08T11:28:46;22.83;;;13.05;;
37983;SDS011;64625;50.882;4.376;2023-04-08T11:31:15;27.63;;;13.63;;
37983;SDS011;64625;50.882;4.376;2023-04-08T11:33:46;27.48;;;14.10;;
37983;SDS011;64625;50.882;4.376;2023-04-08T11:36:13;23.55;;;13.80;;
37983;SDS011;64625;50.882;4.376;2023-04-08T11:38:39;22.25;;;15.25;;
37983;SDS011;64625;50.882;4.376;2023-04-08T11:41:06;21.75;;;13.98;;
37983;SDS011;64625;50.882;4.376;2023-04-08T11:43:32;28.40;;;15.15;;
37983;SDS011;64625;50.882;4.376;2023-04-08T11:45:57;24.40;;;14.93;;
37983;SDS011;64625;50.882;4.376;2023-04-08T11:48:55;27.17;;;15.10;;
37983;SDS011;64625;50.882;4.376;2023-04-08T11:51:21;22.02;;;14.52;;
37983;SDS011;64625;50.882;4.376;2023-04-08T11:53:48;30.83;;;15.70;;
37983;SDS011;64625;50.882;4.376;2023-04-08T11:58:42;30.90;;;16.05;;
37983;SDS011;64625;50.882;4.376;2023-04-08T12:01:08;30.77;;;16.55;;
37983;SDS011;64625;50.882;4.376;2023-04-08T12:03:34;25.73;;;14.68;;
37983;SDS011;64625;50.882;4.376;2023-04-08T12:05:59;25.60;;;13.70;;
37983;SDS011;64625;50.882;4.376;2023-04-08T12:08:25;21.50;;;13.75;;
37983;SDS011;64625;50.882;4.376;2023-04-08T12:10:52;21.63;;;13.43;;
37983;SDS011;64625;50.882;4.376;2023-04-08T12:13:18;18.48;;;13.20;;
37983;SDS011;64625;50.882;4.376;2023-04-08T12:15:44;21.73;;;12.60;;
37983;SDS011;64625;50.882;4.376;2023-04-08T12:18:10;19.63;;;12.20;;
37983;SDS011;64625;50.882;4.376;2023-04-08T12:20:36;21.38;;;11.80;;
37983;SDS011;64625;50.882;4.376;2023-04-08T12:23:01;21.30;;;12.63;;
37983;SDS011;64625;50.882;4.376;2023-04-08T12:25:27;17.08;;;11.43;;
37983;SDS011;64625;50.882;4.376;2023-04-08T12:27:53;17.75;;;10.13;;
37983;SDS011;64625;50.882;4.376;2023-04-08T12:30:19;17.13;;;9.65;;
37983;SDS011;64625;50.882;4.376;2023-04-08T12:32:45;17.58;;;9.13;;
37983;SDS011;64625;50.882;4.376;2023-04-08T12:35:11;24.15;;;15.65;;
37983;SDS011;64625;50.882;4.376;2023-04-08T12:37:38;13.20;;;9.68;;
37983;SDS011;64625;50.882;4.376;2023-04-08T12:40:03;16.02;;;10.27;;
37983;SDS011;64625;50.882;4.376;2023-04-08T12:42:30;18.85;;;10.70;;
37983;SDS011;64625;50.882;4.376;2023-04-08T12:44:56;16.63;;;11.20;;
37983;SDS011;64625;50.882;4.376;2023-04-08T12:47:21;14.85;;;9.75;;
37983;SDS011;64625;50.882;4.376;2023-04-08T12:49:47;20.00;;;11.10;;
37983;SDS011;64625;50.882;4.376;2023-04-08T12:52:13;15.88;;;9.35;;
37983;SDS011;64625;50.882;4.376;2023-04-08T12:54:39;19.45;;;10.77;;
37983;SDS011;64625;50.882;4.376;2023-04-08T12:57:05;15.13;;;10.02;;
37983;SDS011;64625;50.882;4.376;2023-04-08T12:59:31;16.92;;;9.43;;
37983;SDS011;64625;50.882;4.376;2023-04-08T13:01:57;18.88;;;12.07;;
37983;SDS011;64625;50.882;4.376;2023-04-08T13:04:23;17.02;;;9.32;;
37983;SDS011;64625;50.882;4.376;2023-04-08T13:06:49;16.20;;;9.95;;
37983;SDS011;64625;50.882;4.376;2023-04-08T13:09:15;20.00;;;10.73;;
37983;SDS011;64625;50.882;4.376;2023-04-08T13:11:42;18.25;;;9.63;;
37983;SDS011;64625;50.882;4.376;2023-04-08T13:14:08;18.30;;;10.23;;
37983;SDS011;64625;50.882;4.376;2023-04-08T13:16:34;25.15;;;11.32;;
37983;SDS011;64625;50.882;4.376;2023-04-08T13:19:00;16.17;;;9.40;;
37983;SDS011;64625;50.882;4.376;2023-04-08T13:21:25;14.68;;;10.70;;
37983;SDS011;64625;50.882;4.376;2023-04-08T13:23:51;18.33;;;10.40;;
37983;SDS011;64625;50.882;4.376;2023-04-08T13:26:17;18.45;;;11.02;;
37983;SDS011;64625;50.882;4.376;2023-04-08T13:28:43;16.52;;;11.88;;
37983;SDS011;64625;50.882;4.376;2023-04-08T13:31:09;18.65;;;11.93;;
37983;SDS011;64625;50.882;4.376;2023-04-08T13:33:35;15.80;;;10.50;;
37983;SDS011;64625;50.882;4.376;2023-04-08T13:36:01;18.95;;;11.57;;
37983;SDS011;64625;50.882;4.376;2023-04-08T13:38:27;22.38;;;10.38;;
37983;SDS011;64625;50.882;4.376;2023-04-08T13:40:53;16.75;;;11.18;;
37983;SDS011;64625;50.882;4.376;2023-04-08T13:43:19;19.60;;;12.60;;
37983;SDS011;64625;50.882;4.376;2023-04-08T13:45:46;21.58;;;11.05;;
37983;SDS011;64625;50.882;4.376;2023-04-08T13:48:12;16.55;;;11.02;;
37983;SDS011;64625;50.882;4.376;2023-04-08T13:50:38;22.08;;;12.15;;
37983;SDS011;64625;50.882;4.376;2023-04-08T13:53:05;20.10;;;10.63;;
37983;SDS011;64625;50.882;4.376;2023-04-08T13:55:31;18.27;;;11.32;;
37983;SDS011;64625;50.882;4.376;2023-04-08T13:57:57;15.18;;;11.77;;
37983;SDS011;64625;50.882;4.376;2023-04-08T14:00:23;29.30;;;12.52;;
37983;SDS011;64625;50.882;4.376;2023-04-08T14:02:49;21.80;;;13.63;;
37983;SDS011;64625;50.882;4.376;2023-04-08T14:05:15;22.40;;;13.02;;
37983;SDS011;64625;50.882;4.376;2023-04-08T14:07:41;23.40;;;13.48;;
37983;SDS011;64625;50.882;4.376;2023-04-08T14:10:07;22.23;;;12.93;;
37983;SDS011;64625;50.882;4.376;2023-04-08T14:12:34;23.33;;;12.27;;
37983;SDS011;64625;50.882;4.376;2023-04-08T14:15:00;20.80;;;14.25;;
37983;SDS011;64625;50.882;4.376;2023-04-08T14:17:26;24.38;;;15.93;;
37983;SDS011;64625;50.882;4.376;2023-04-08T14:19:52;21.00;;;13.52;;
37983;SDS011;64625;50.882;4.376;2023-04-08T14:22:18;29.20;;;15.32;;
37983;SDS011;64625;50.882;4.376;2023-04-08T14:24:44;24.27;;;14.27;;
37983;SDS011;64625;50.882;4.376;2023-04-08T14:27:11;20.38;;;13.48;;
37983;SDS011;64625;50.882;4.376;2023-04-08T14:29:37;26.50;;;13.68;;
37983;SDS011;64625;50.882;4.376;2023-04-08T14:32:03;27.58;;;14.43;;
37983;SDS011;64625;50.882;4.376;2023-04-08T14:34:28;28.98;;;14.88;;
37983;SDS011;64625;50.882;4.376;2023-04-08T14:36:54;26.23;;;14.85;;
37983;SDS011;64625;50.882;4.376;2023-04-08T14:39:20;26.48;;;14.93;;
37983;SDS011;64625;50.882;4.376;2023-04-08T14:41:47;27.75;;;14.70;;
37983;SDS011;64625;50.882;4.376;2023-04-08T14:44:13;29.25;;;16.73;;
37983;SDS011;64625;50.882;4.376;2023-04-08T14:46:39;25.98;;;13.25;;
37983;SDS011;64625;50.882;4.376;2023-04-08T14:49:05;23.40;;;14.27;;
37983;SDS011;64625;50.882;4.376;2023-04-08T14:51:31;24.88;;;16.52;;
37983;SDS011;64625;50.882;4.376;2023-04-08T14:53:57;25.42;;;15.80;;
37983;SDS011;64625;50.882;4.376;2023-04-08T14:56:23;25.92;;;15.88;;